Flight Track Log - Related Links

Times and Time Zones

All times are in EDT time to prevent confusion due to time zone crossing. See the CCA4121 flight status page for this flight to view local times or setup timezone preferences in your user account.

Time Position Orientation Groundspeed Altitude Reporting Facility
EDT Latitude Longitude Course Direction KTS MPH feet Rate Location/Type
Sat 07:47:00 AM 33.0567 103.9824 51° Northeast  Level Estimated
Sat 07:48:00 AM 33.1231 104.0824 52° Northeast  Level Estimated
Sat 07:49:00 AM 33.1894 104.1827 52° Northeast  Level Estimated
Sat 07:50:00 AM 33.2556 104.2831 52° Northeast  Level Estimated
Sat 07:51:00 AM 33.3218 104.3836 52° Northeast  Level Estimated
Sat 07:52:00 AM 33.3879 104.4843 52° Northeast  Level Estimated
Sat 07:53:00 AM 33.4539 104.5852 52° Northeast  Level Estimated
Sat 07:54:00 AM 33.5198 104.6861 52° Northeast  Level Estimated
Sat 07:54:11 AM 32.8240 104.4040 52° Northeast 447 514 28,800  Level FlightAware ADS-B
Sat 07:54:35 AM 32.8070 104.4560 111° Southeast 441 507 29,900 1,818 Climbing FlightAware ADS-B
Sat 07:55:00 AM 33.5857 104.7873 52° Northeast  Level Estimated
Sat 07:55:17 AM 32.7740 104.5550 112° Southeast 456 525 30,800  Level FlightAware ADS-B
Sat 07:55:55 AM 32.7500 104.6300 111° Southeast 457 526 31,000 1,263 Climbing FlightAware ADS-B
Sat 07:56:33 AM 32.7150 104.7330 112° Southeast 476 548 32,400 1,105 Climbing FlightAware ADS-B
Sat 07:57:11 AM 32.6890 104.8120 111° Southeast 476 548 32,400  Level FlightAware ADS-B
Sat 07:57:59 AM 32.6570 104.9120 111° Southeast 476 548 32,400  Level FlightAware ADS-B
Sat 07:58:47 AM 32.6250 105.0110 111° Southeast 476 548 32,400  Level FlightAware ADS-B
Sat 07:59:36 AM 32.5920 105.1130 111° Southeast 476 548 32,400  Level FlightAware ADS-B
Sat 08:00:12 AM 32.5680 105.1880 111° Southeast 476 548 32,400  Level FlightAware ADS-B
Sat 08:01:01 AM 32.5350 105.2890 111° Southeast 476 548 32,400  Level FlightAware ADS-B
Sat 08:01:49 AM 32.5030 105.3890 111° Southeast 476 548 32,400  Level FlightAware ADS-B
Sat 08:02:37 AM 32.4700 105.4880 112° Southeast 476 548 32,400  Level FlightAware ADS-B
Sat 08:03:14 AM 32.4460 105.5650 110° East 476 548 32,400  Level FlightAware ADS-B
Sat 08:03:50 AM 32.4210 105.6390 112° Southeast 476 548 32,400  Level FlightAware ADS-B
Sat 08:04:37 AM 32.3900 105.7370 111° Southeast 476 548 32,400  Level FlightAware ADS-B
Sat 08:05:02 AM 32.3730 105.7880 112° Southeast 476 548 32,400  Level FlightAware ADS-B
Sat 08:05:50 AM 32.3410 105.8880 111° Southeast 476 548 32,400 -123 Level FlightAware ADS-B
Sat 08:08:00 AM 32.5046 106.0825 45° Northeast  Level Estimated
Sat 08:09:00 AM 32.5800 106.1725 45° Northeast  Level Estimated
Sat 08:10:00 AM 32.6553 106.2626 45° Northeast  Level Estimated
Sat 08:11:00 AM 32.7306 106.3529 45° Northeast  Level Estimated
Sat 08:12:00 AM 32.8058 106.4434 45° Northeast  Level Estimated
Sat 08:13:00 AM 32.8809 106.5340 45° Northeast  Level Estimated
Sat 08:14:00 AM 32.9560 106.6247 45° Northeast  Level Estimated
Sat 08:15:00 AM 33.0310 106.7157 45° Northeast  Level Estimated
Sat 08:16:00 AM 33.1060 106.8067 45° Northeast  Level Estimated
Sat 08:17:00 AM 33.1809 106.8979 46° Northeast  Level Estimated
Sat 08:18:00 AM 33.2557 106.9893 46° Northeast  Level Estimated
Sat 08:19:00 AM 33.3304 107.0809 46° Northeast  Level Estimated
Sat 08:20:00 AM 33.4051 107.1726 46° Northeast  Level Estimated
Sat 08:21:00 AM 33.4797 107.2644 46° Northeast  Level Estimated
Sat 08:22:00 AM 33.5542 107.3564 46° Northeast  Level Estimated
Sat 08:23:00 AM 33.6287 107.4486 46° Northeast  Level Estimated
Sat 08:24:00 AM 33.7031 107.5409 46° Northeast  Level Estimated
Sat 08:25:00 AM 33.7774 107.6334 46° Northeast  Level Estimated
Sat 08:26:00 AM 33.8517 107.7261 46° Northeast  Level Estimated
Sat 08:27:00 AM 33.9259 107.8189 46° Northeast  Level Estimated
Sat 08:28:00 AM 34.0000 107.9118 46° Northeast  Level Estimated
Sat 08:29:00 AM 34.0741 108.0050 46° Northeast  Level Estimated
Sat 08:30:00 AM 34.1481 108.0983 46° Northeast  Level Estimated
Sat 08:31:00 AM 34.2220 108.1917 46° Northeast  Level Estimated
Sat 08:32:00 AM 34.2958 108.2854 46° Northeast  Level Estimated
Sat 08:33:00 AM 34.3696 108.3792 46° Northeast  Level Estimated
Sat 08:34:00 AM 34.4433 108.4731 46° Northeast  Level Estimated
Sat 08:35:00 AM 34.5169 108.5672 46° Northeast  Level Estimated
Sat 08:36:00 AM 34.5905 108.6615 47° Northeast  Level Estimated
Sat 08:37:00 AM 34.6640 108.7560 47° Northeast  Level Estimated
Sat 08:38:00 AM 34.7374 108.8506 47° Northeast  Level Estimated
Sat 08:39:00 AM 34.8107 108.9454 47° Northeast  Level Estimated
Sat 08:40:00 AM 34.8840 109.0403 47° Northeast  Level Estimated
Sat 08:41:00 AM 34.9572 109.1355 47° Northeast  Level Estimated
Sat 08:42:00 AM 35.0303 109.2308 47° Northeast  Level Estimated
Sat 08:43:00 AM 35.1034 109.3262 47° Northeast  Level Estimated
Sat 08:44:00 AM 35.1763 109.4219 47° Northeast  Level Estimated
Sat 08:45:00 AM 35.2492 109.5177 47° Northeast  Level Estimated
Sat 08:46:00 AM 35.3220 109.6137 47° Northeast  Level Estimated
Sat 08:47:00 AM 35.3948 109.7098 47° Northeast  Level Estimated
Sat 08:48:00 AM 35.4674 109.8062 47° Northeast  Level Estimated
Sat 08:49:00 AM 35.5400 109.9027 47° Northeast  Level Estimated
Sat 08:50:00 AM 35.6125 109.9993 47° Northeast  Level Estimated
Sat 08:51:00 AM 35.6850 110.0962 47° Northeast  Level Estimated
Sat 08:52:00 AM 35.7573 110.1932 47° Northeast  Level Estimated
Sat 08:53:00 AM 35.8296 110.2904 47° Northeast  Level Estimated
Sat 08:54:00 AM 35.9018 110.3878 48° Northeast  Level Estimated
Sat 08:55:00 AM 35.9739 110.4854 48° Northeast  Level Estimated
Sat 08:56:00 AM 36.0460 110.5831 48° Northeast  Level Estimated
Sat 08:57:00 AM 36.1179 110.6810 48° Northeast  Level Estimated
Sat 08:58:00 AM 36.1898 110.7791 48° Northeast  Level Estimated
Sat 08:59:00 AM 36.2616 110.8774 48° Northeast  Level Estimated
Sat 09:00:00 AM 36.3333 110.9759 48° Northeast  Level Estimated
Sat 09:01:00 AM 36.4049 111.0745 48° Northeast  Level Estimated
Sat 09:02:00 AM 36.4765 111.1733 48° Northeast  Level Estimated
Sat 09:03:00 AM 36.5480 111.2723 48° Northeast  Level Estimated
Sat 09:04:00 AM 36.6194 111.3715 48° Northeast  Level Estimated
Sat 09:05:00 AM 36.6907 111.4709 48° Northeast  Level Estimated
Sat 09:06:00 AM 36.7619 111.5705 48° Northeast  Level Estimated
Sat 09:07:00 AM 36.8331 111.6702 48° Northeast  Level Estimated
Sat 09:08:00 AM 36.9041 111.7701 48° Northeast  Level Estimated
Sat 09:09:00 AM 36.9751 111.8702 48° Northeast  Level Estimated
Sat 09:10:00 AM 37.0460 111.9705 48° Northeast  Level Estimated
Sat 09:11:00 AM 37.1168 112.0710 49° Northeast  Level Estimated
Sat 09:12:00 AM 37.1875 112.1717 49° Northeast  Level Estimated
Sat 09:13:00 AM 37.2582 112.2726 49° Northeast  Level Estimated
Sat 09:14:00 AM 37.3287 112.3736 49° Northeast  Level Estimated
Sat 09:15:00 AM 37.3992 112.4749 49° Northeast  Level Estimated
Sat 09:16:00 AM 37.4696 112.5763 49° Northeast  Level Estimated
Sat 09:17:00 AM 37.5399 112.6779 49° Northeast  Level Estimated
Sat 09:18:00 AM 37.6101 112.7797 49° Northeast  Level Estimated
Sat 09:19:00 AM 37.6802 112.8818 49° Northeast  Level Estimated
Sat 09:20:00 AM 37.7502 112.9839 49° Northeast  Level Estimated
Sat 09:20:03 AM 38.2440 114.6120 49° Northeast 408 470 23,200  Level FlightAware ADS-B
Sat 09:20:42 AM 38.2760 114.6880 62° Northeast 408 470 22,600 -940 Descending FlightAware ADS-B
Sat 09:21:00 AM 37.8202 113.0863 49° Northeast  Level Estimated
Sat 09:21:26 AM 38.3210 114.7790 58° Northeast 394 453 21,900  Level FlightAware ADS-B
Sat 09:22:02 AM 38.3580 114.8510 57° Northeast 389 448 21,300 -474 Descending FlightAware ADS-B
Sat 09:22:42 AM 38.3920 114.9170 57° Northeast 389 448 21,300  Level FlightAware ADS-B
Sat 09:23:18 AM 38.4220 114.9760 57° Northeast 389 448 21,300  Level FlightAware ADS-B
Sat 09:23:55 AM 38.4520 115.0360 57° Northeast 389 448 21,300 -1,841 Level FlightAware ADS-B
Sat 09:24:46 AM 38.5120 115.1550 57° Northeast 372 428 18,600 -2,302 Descending FlightAware ADS-B
Sat 09:25:21 AM 38.5450 115.2210 57° Northeast 371 427 18,000 -1,040 Descending FlightAware ADS-B
Sat 09:26:01 AM 38.5820 115.2960 58° Northeast 388 447 17,300 -1,037 Descending FlightAware ADS-B
Sat 09:26:42 AM 38.6220 115.3770 58° Northeast 383 441 16,600 -975 Descending FlightAware ADS-B
Sat 09:27:21 AM 38.6590 115.4500 57° Northeast 380 437 16,000 -720 Descending FlightAware ADS-B
Sat 09:27:57 AM 38.6930 115.5190 58° Northeast 379 436 15,700 -269 Descending FlightAware ADS-B
Sat 09:28:28 AM 38.7210 115.5760 58° Northeast 377 434 15,700  Level FlightAware ADS-B
Sat 09:29:03 AM 38.7510 115.6360 57° Northeast 376 433 15,700  Level FlightAware ADS-B
Sat 09:29:47 AM 38.7950 115.7230 57° Northeast 377 434 15,700  Level FlightAware ADS-B
Sat 09:31:03 AM 38.8650 115.8670 58° Northeast 377 434 15,700  Level FlightAware ADS-B
Sat 09:32:06 AM 38.9250 115.9890 58° Northeast 378 435 15,700  Level FlightAware ADS-B
Sat 09:32:46 AM 38.9610 116.0620 58° Northeast 397 457 15,700  Level FlightAware ADS-B
Sat 09:33:24 AM 39.0010 116.1450 58° Northeast 399 459 15,700  Level FlightAware ADS-B
Sat 09:34:05 AM 39.0410 116.2270 58° Northeast 398 458 15,700 -289 Level FlightAware ADS-B
Sat 09:34:47 AM 39.0900 116.2950 47° Northeast 382 440 15,300 -692 Descending FlightAware ADS-B
Sat 09:35:23 AM 39.1510 116.3340 26° Northeast 385 443 14,800 -493 Descending FlightAware ADS-B
Sat 09:36:00 AM 39.2090 116.3710 26° Northeast 383 441 14,700 -608 Descending FlightAware ADS-B
Sat 09:36:42 AM 39.2740 116.4120 26° Northeast 380 437 14,000 -1,071 Descending FlightAware ADS-B
Sat 09:37:24 AM 39.3360 116.4510 26° Northeast 369 425 13,200 -1,116 Descending FlightAware ADS-B
Sat 09:38:08 AM 39.4050 116.4950 26° Northeast 333 383 12,400 -889 Descending FlightAware ADS-B
Sat 09:38:45 AM 39.4530 116.5270 27° Northeast 306 352 12,000 -1,037 Descending FlightAware ADS-B
Sat 09:39:29 AM 39.5070 116.5620 27° Northeast 297 342 11,000 -1,172 Descending FlightAware ADS-B
Sat 09:40:12 AM 39.5590 116.5950 26° Northeast 277 319 10,300 -723 Descending FlightAware ADS-B
Sat 09:40:52 AM 39.6030 116.6230 26° Northeast 253 291 10,000 -568 Descending FlightAware ADS-B
Sat 09:41:26 AM 39.6360 116.6450 27° Northeast 234 269 9,600 -740 Descending FlightAware ADS-B
Sat 09:42:05 AM 39.6740 116.6570 14° North 208 239 9,100 -1,098 Descending FlightAware ADS-B
Sat 09:42:48 AM 39.7160 116.6530 356° North 200 230 8,100 -1,429 Descending FlightAware ADS-B
Sat 09:43:29 AM 39.7530 116.6470 353° North 197 227 7,100 -1,590 Descending FlightAware ADS-B
Sat 09:44:11 AM 39.7910 116.6410 353° North 204 235 5,900 -1,800 Descending FlightAware ADS-B
Sat 09:44:39 AM 39.8180 116.6370 354° North 211 243 5,000 -1,875 Descending FlightAware ADS-B
Sat 09:45:15 AM 39.8540 116.6320 354° North 216 249 3,900 -1,594 Descending FlightAware ADS-B
Sat 09:45:43 AM 39.8810 116.6280 354° North 205 236 3,300 -1,000 Descending FlightAware ADS-B
Sat 09:46:33 AM 39.9230 116.6210 353° North 171 197 2,600 -894 Descending FlightAware ADS-B
Sat 09:47:17 AM 39.9550 116.6160 353° North 155 178 1,900 -866 Descending FlightAware ADS-B
Sat 09:48:10 AM 39.9930 116.6100 353° North 145 167 1,200 -578 Descending FlightAware ADS-B
Sat 09:48:40 AM 40.0100 116.6070 352° North 145 167 1,100 -200 Descending FlightAware ADS-B

Login

Don't have an account? Register now (free) for customized features, flight alerts, and more!